createdAt,value
2017-09-01T00:02:17.328Z,4.30
2017-09-01T00:05:19.412Z,5.17
2017-09-01T00:08:20.873Z,4.67
2017-09-01T00:11:22.203Z,4.03
2017-09-01T00:14:23.538Z,4.77
2017-09-01T00:17:24.841Z,5.03
2017-09-01T00:20:26.173Z,3.90
2017-09-01T00:23:27.490Z,4.23
2017-09-01T00:26:28.806Z,3.50
2017-09-01T00:29:30.112Z,4.90
2017-09-01T00:32:32.281Z,4.33
2017-09-01T00:35:33.665Z,4.80
2017-09-01T00:38:35.000Z,4.00
2017-09-01T00:41:36.449Z,4.53
2017-09-01T00:44:37.778Z,4.93
2017-09-01T00:47:39.143Z,4.40
2017-09-01T00:50:40.464Z,4.53
2017-09-01T00:53:41.849Z,5.30
2017-09-01T00:56:43.208Z,4.80
2017-09-01T00:59:44.589Z,5.47
2017-09-01T01:02:45.933Z,6.30
2017-09-01T01:05:47.294Z,5.07
2017-09-01T01:08:48.648Z,4.60
2017-09-01T01:11:50.045Z,5.40
2017-09-01T01:14:51.414Z,4.47
2017-09-01T01:17:52.785Z,5.17
2017-09-01T01:20:54.165Z,5.53
2017-09-01T01:23:55.506Z,6.13
2017-09-01T01:26:56.901Z,5.90
2017-09-01T01:29:58.243Z,5.60
2017-09-01T01:32:59.623Z,5.80
2017-09-01T01:36:00.983Z,5.00
2017-09-01T01:39:02.363Z,5.40
2017-09-01T01:42:04.137Z,5.30
2017-09-01T01:45:05.473Z,5.77
2017-09-01T01:48:06.861Z,5.43
2017-09-01T01:51:08.229Z,5.17
2017-09-01T01:54:09.600Z,5.37
2017-09-01T01:57:10.933Z,4.37
2017-09-01T02:00:12.324Z,5.40
2017-09-01T02:03:13.738Z,5.30
2017-09-01T02:06:15.080Z,5.13
2017-09-01T02:09:16.465Z,5.97
2017-09-01T02:12:17.845Z,5.27
2017-09-01T02:15:19.312Z,5.97
2017-09-01T02:18:20.664Z,4.97
2017-09-01T02:21:22.038Z,5.43
2017-09-01T02:24:23.429Z,5.00
2017-09-01T02:27:24.789Z,5.10
2017-09-01T02:30:26.138Z,5.77
2017-09-01T02:33:27.501Z,4.90
2017-09-01T02:36:28.850Z,5.30
2017-09-01T02:39:30.229Z,5.30
2017-09-01T02:42:31.764Z,6.20
2017-09-01T02:45:33.188Z,4.90
2017-09-01T02:48:34.584Z,6.00
2017-09-01T02:51:35.965Z,5.57
2017-09-01T02:54:37.373Z,6.40
2017-09-01T02:57:38.722Z,5.60
2017-09-01T03:00:40.208Z,5.03
2017-09-01T03:03:41.549Z,6.60
2017-09-01T03:06:42.929Z,6.17
2017-09-01T03:09:44.265Z,4.73
2017-09-01T03:12:45.649Z,6.43
2017-09-01T03:15:47.061Z,5.83
2017-09-01T03:18:48.500Z,6.83
2017-09-01T03:21:50.284Z,6.53
2017-09-01T03:24:51.661Z,5.53
2017-09-01T03:27:53.049Z,5.77
2017-09-01T03:30:54.387Z,5.50
2017-09-01T03:33:55.757Z,5.40
2017-09-01T03:36:57.109Z,5.77
2017-09-01T03:39:58.461Z,7.23
2017-09-01T03:42:59.820Z,6.97
2017-09-01T03:46:01.165Z,6.47
2017-09-01T03:49:02.657Z,6.43
2017-09-01T03:52:03.994Z,6.00
2017-09-01T03:55:05.365Z,6.07
2017-09-01T03:58:06.717Z,6.53
2017-09-01T04:01:08.112Z,7.00
2017-09-01T04:04:09.445Z,5.90
2017-09-01T04:07:10.777Z,7.17
2017-09-01T04:10:12.420Z,7.20
2017-09-01T04:13:13.804Z,6.63
2017-09-01T04:16:15.184Z,6.40
2017-09-01T04:19:16.585Z,6.60
2017-09-01T04:22:17.990Z,5.83
2017-09-01T04:25:19.412Z,6.93
2017-09-01T04:28:20.771Z,7.60
2017-09-01T04:31:22.134Z,6.57
2017-09-01T04:34:23.553Z,7.63
2017-09-01T04:37:24.877Z,7.37
2017-09-01T04:40:26.272Z,7.20
2017-09-01T04:43:27.621Z,9.00
2017-09-01T04:46:28.997Z,9.50
2017-09-01T04:49:30.560Z,8.50
2017-09-01T04:52:31.878Z,7.87
2017-09-01T04:55:33.254Z,8.73
2017-09-01T04:58:34.592Z,8.10
2017-09-01T05:01:35.921Z,8.70
2017-09-01T05:04:37.241Z,9.10
2017-09-01T05:07:38.636Z,9.13
2017-09-01T05:10:40.010Z,9.93
2017-09-01T05:13:41.370Z,10.10
2017-09-01T05:16:42.768Z,8.70
2017-09-01T05:19:44.129Z,9.53
2017-09-01T05:22:45.471Z,8.00
2017-09-01T05:25:46.801Z,8.00
2017-09-01T05:28:48.153Z,8.70
2017-09-01T05:31:49.492Z,9.10
2017-09-01T05:34:50.868Z,8.20
2017-09-01T05:37:52.218Z,9.37
2017-09-01T05:40:53.557Z,9.77
2017-09-01T05:43:55.252Z,9.70
2017-09-01T05:46:56.546Z,10.00
2017-09-01T05:49:57.928Z,10.70
2017-09-01T05:52:59.244Z,11.73
2017-09-01T05:56:00.565Z,11.57
2017-09-01T05:59:01.865Z,11.53
2017-09-01T06:02:03.217Z,13.10
2017-09-01T06:05:04.556Z,11.70
2017-09-01T06:08:05.923Z,11.90
2017-09-01T06:11:07.296Z,11.70
2017-09-01T06:14:08.621Z,12.50
2017-09-01T06:17:09.968Z,11.90
2017-09-01T06:20:11.241Z,12.50
2017-09-01T06:23:12.584Z,12.37
2017-09-01T06:26:13.871Z,12.77
2017-09-01T06:29:15.213Z,12.90
2017-09-01T06:32:17.538Z,13.83
2017-09-01T06:35:18.860Z,13.97
2017-09-01T06:38:20.441Z,11.50
2017-09-01T06:41:21.737Z,12.87
2017-09-01T06:44:23.073Z,13.87
2017-09-01T06:47:24.365Z,12.20
2017-09-01T06:50:25.673Z,17.00
2017-09-01T06:53:26.984Z,17.80
2017-09-01T06:56:28.301Z,18.80
2017-09-01T06:59:29.738Z,16.80
2017-09-01T07:02:31.769Z,17.63
2017-09-01T07:05:33.077Z,17.87
2017-09-01T07:08:34.361Z,21.13
2017-09-01T07:11:35.765Z,18.63
2017-09-01T07:14:37.069Z,19.60
2017-09-01T07:17:38.429Z,20.40
2017-09-01T07:20:39.722Z,20.07
2017-09-01T07:23:41.088Z,21.37
2017-09-01T07:26:42.409Z,21.00
2017-09-01T07:29:43.724Z,45.73
2017-09-01T07:32:45.084Z,22.77
2017-09-01T07:35:46.408Z,19.93
2017-09-01T07:38:47.757Z,20.77
2017-09-01T07:41:49.085Z,20.17
2017-09-01T07:44:50.440Z,18.20
2017-09-01T07:47:51.777Z,21.37
2017-09-01T07:50:53.085Z,18.87
2017-09-01T07:53:54.416Z,20.93
2017-09-01T07:56:55.857Z,22.07
2017-09-01T07:59:57.165Z,19.73
2017-09-01T08:02:58.501Z,21.87
2017-09-01T08:05:59.792Z,21.57
2017-09-01T08:09:01.143Z,21.90
2017-09-01T08:12:02.482Z,21.47
2017-09-01T08:15:03.813Z,19.10
2017-09-01T08:18:05.157Z,20.00
2017-09-01T08:21:06.461Z,21.80
2017-09-01T08:24:07.808Z,19.43
2017-09-01T08:27:09.101Z,19.43
2017-09-01T08:30:10.454Z,19.90
2017-09-01T08:33:11.733Z,19.10
2017-09-01T08:36:13.061Z,19.77
2017-09-01T08:39:14.388Z,20.17
2017-09-01T08:42:15.718Z,18.47
2017-09-01T08:45:17.212Z,20.50
2017-09-01T08:48:18.505Z,18.43
2017-09-01T08:51:19.862Z,18.30
2017-09-01T08:54:21.153Z,17.00
2017-09-01T08:57:22.505Z,12.43
2017-09-01T09:00:23.807Z,12.73
2017-09-01T09:03:25.874Z,12.80
2017-09-01T09:06:27.204Z,12.07
2017-09-01T09:09:28.536Z,13.27
2017-09-01T09:12:29.918Z,13.33
2017-09-01T09:15:31.237Z,13.83
2017-09-01T09:18:32.553Z,15.07
2017-09-01T09:21:33.881Z,17.17
2017-09-01T09:24:35.229Z,14.90
2017-09-01T09:27:36.529Z,17.00
2017-09-01T09:30:37.861Z,16.57
2017-09-01T09:33:39.161Z,16.30
2017-09-01T09:36:40.496Z,16.90
2017-09-01T09:39:41.843Z,18.63
2017-09-01T09:42:43.152Z,18.60
2017-09-01T09:45:44.488Z,17.80
2017-09-01T09:48:45.808Z,18.87
2017-09-01T09:51:47.149Z,18.20
2017-09-01T09:54:48.680Z,17.50
2017-09-01T09:57:49.984Z,17.20
2017-09-01T10:00:51.322Z,17.07
2017-09-01T10:03:52.626Z,14.37
2017-09-01T10:06:54.019Z,15.57
2017-09-01T10:09:55.337Z,16.50
2017-09-01T10:12:56.718Z,15.27
2017-09-01T10:15:58.077Z,16.90
2017-09-01T10:18:59.388Z,16.77
2017-09-01T10:22:00.760Z,16.27
2017-09-01T10:25:02.073Z,15.80
2017-09-01T10:28:03.460Z,14.27
2017-09-01T10:31:04.801Z,15.27
2017-09-01T10:34:06.144Z,16.67
2017-09-01T10:37:07.464Z,15.90
2017-09-01T10:40:08.812Z,16.57
2017-09-01T10:43:10.144Z,14.13
2017-09-01T10:46:11.437Z,14.63
2017-09-01T10:53:09.485Z,12.67
2017-09-01T10:56:29.249Z,14.07
2017-09-01T10:59:30.561Z,13.97
2017-09-01T11:02:31.873Z,13.23
2017-09-01T11:05:33.210Z,12.93
2017-09-01T11:08:34.524Z,14.30
2017-09-01T11:11:35.881Z,15.80
2017-09-01T11:14:37.597Z,16.97
2017-09-01T11:17:38.928Z,15.70
2017-09-01T11:20:46.498Z,16.50
2017-09-01T11:23:53.884Z,14.73
2017-09-01T11:26:55.232Z,14.23
2017-09-01T11:29:56.918Z,13.57
2017-09-01T11:32:58.228Z,10.40
2017-09-01T11:35:59.692Z,9.17
2017-09-01T11:39:01.001Z,9.20
2017-09-01T11:42:02.317Z,10.40
2017-09-01T11:45:03.660Z,10.70
2017-09-01T11:48:05.002Z,9.50
2017-09-01T11:51:06.306Z,10.37
2017-09-01T11:54:07.644Z,9.57
2017-09-01T11:57:08.981Z,11.17
2017-09-01T12:00:10.325Z,10.00
2017-09-01T12:03:11.662Z,8.80
2017-09-01T12:06:12.946Z,9.57
2017-09-01T12:09:14.288Z,8.47
2017-09-01T12:12:16.049Z,9.43
2017-09-01T12:15:17.354Z,11.03
2017-09-01T12:18:18.793Z,11.23
2017-09-01T12:21:20.128Z,11.83
2017-09-01T12:24:21.481Z,11.60
2017-09-01T12:27:22.796Z,10.83
2017-09-01T12:30:24.152Z,10.60
2017-09-01T12:33:25.433Z,11.90
2017-09-01T12:36:26.809Z,13.13
2017-09-01T12:39:28.154Z,11.33
2017-09-01T12:42:29.480Z,12.87
2017-09-01T12:45:30.897Z,13.30
2017-09-01T12:48:32.194Z,12.17
2017-09-01T12:51:33.533Z,12.40
2017-09-01T12:54:34.837Z,13.10
2017-09-01T12:57:36.201Z,12.80
2017-09-01T13:00:37.730Z,12.93
2017-09-01T13:03:39.037Z,15.30
2017-09-01T13:06:40.345Z,14.80
2017-09-01T13:09:41.668Z,12.90
2017-09-01T13:12:43.064Z,13.10
2017-09-01T13:15:44.368Z,13.93
2017-09-01T13:18:45.685Z,13.40
2017-09-01T13:21:47.004Z,13.70
2017-09-01T13:24:48.393Z,14.97
2017-09-01T13:27:50.017Z,14.50
2017-09-01T13:30:51.318Z,14.60
2017-09-01T13:33:52.698Z,15.00
2017-09-01T13:36:54.017Z,15.43
2017-09-01T13:39:55.437Z,16.77
2017-09-01T13:42:56.729Z,15.17
2017-09-01T13:45:58.050Z,14.37
2017-09-01T13:48:59.377Z,12.87
2017-09-01T13:52:00.706Z,10.27
2017-09-01T13:55:02.020Z,10.83
2017-09-01T13:58:03.352Z,11.40
2017-09-01T14:01:04.673Z,10.93
2017-09-01T14:04:05.994Z,10.70
2017-09-01T14:07:07.449Z,10.07
2017-09-01T14:10:08.738Z,9.63
2017-09-01T14:13:10.083Z,10.13
2017-09-01T14:16:11.409Z,11.03
2017-09-01T14:19:12.749Z,10.67
2017-09-01T14:22:14.029Z,11.27
2017-09-01T14:25:15.358Z,10.80
2017-09-01T14:28:16.801Z,11.23
2017-09-01T14:31:18.110Z,12.00
2017-09-01T14:34:19.417Z,12.17
2017-09-01T14:37:20.732Z,11.63
2017-09-01T14:40:22.078Z,11.97
2017-09-01T14:43:23.361Z,12.30
2017-09-01T14:46:24.681Z,12.47
2017-09-01T14:49:25.957Z,11.20
2017-09-01T14:52:27.277Z,13.23
2017-09-01T14:55:29.772Z,9.90
2017-09-01T14:58:31.144Z,12.00
2017-09-01T15:01:32.512Z,11.83
2017-09-01T15:04:33.836Z,9.33
2017-09-01T15:07:35.188Z,9.20
2017-09-01T15:10:36.503Z,9.60
2017-09-01T15:13:37.858Z,7.50
2017-09-01T15:16:39.201Z,8.30
2017-09-01T15:19:40.549Z,8.13
2017-09-01T15:22:41.996Z,8.10
2017-09-01T15:25:43.320Z,7.00
2017-09-01T15:28:44.828Z,7.60
2017-09-01T15:31:46.121Z,7.13
2017-09-01T15:34:47.433Z,7.07
2017-09-01T15:37:48.764Z,7.27
2017-09-01T15:40:50.089Z,6.80
2017-09-01T15:43:51.409Z,6.87
2017-09-01T15:46:52.761Z,7.47
2017-09-01T15:49:54.484Z,8.80
2017-09-01T15:52:55.817Z,6.90
2017-09-01T15:55:57.147Z,5.47
2017-09-01T15:58:58.425Z,5.90
2017-09-01T16:01:59.800Z,6.40
2017-09-01T16:05:01.116Z,4.83
2017-09-01T16:08:02.481Z,6.13
2017-09-01T16:11:03.801Z,5.17
2017-09-01T16:14:05.145Z,4.93
2017-09-01T16:17:06.921Z,5.10
2017-09-01T16:20:08.229Z,5.80
2017-09-01T16:23:09.672Z,5.20
2017-09-01T16:26:10.977Z,6.20
2017-09-01T16:29:12.306Z,5.17
2017-09-01T16:32:13.587Z,5.50
2017-09-01T16:35:14.921Z,5.63
2017-09-01T16:38:16.220Z,6.00
2017-09-01T16:41:17.573Z,5.30
2017-09-01T16:44:18.857Z,4.90
2017-09-01T16:47:20.181Z,5.37
2017-09-01T16:50:21.511Z,5.37
2017-09-01T16:53:22.825Z,5.33
2017-09-01T16:56:24.169Z,4.90
2017-09-01T16:59:25.489Z,5.07
2017-09-01T17:02:26.821Z,5.00
2017-09-01T17:05:28.132Z,5.40
2017-09-01T17:08:29.496Z,5.67
2017-09-01T17:11:30.858Z,6.17
2017-09-01T17:14:32.322Z,4.90
2017-09-01T17:17:33.654Z,5.53
2017-09-01T17:20:35.041Z,5.60
2017-09-01T17:23:36.610Z,5.70
2017-09-01T17:26:37.972Z,6.03
2017-09-01T17:29:39.370Z,5.90
2017-09-01T17:32:40.748Z,5.53
2017-09-01T17:35:42.112Z,6.43
2017-09-01T17:38:43.475Z,5.80
2017-09-01T17:41:44.852Z,5.67
2017-09-01T17:44:46.151Z,6.03
2017-09-01T17:47:47.523Z,6.20
2017-09-01T17:50:48.961Z,8.10
2017-09-01T17:53:50.266Z,7.93
2017-09-01T17:56:51.638Z,8.93
2017-09-01T17:59:52.957Z,8.27
2017-09-01T18:02:54.326Z,9.37
2017-09-01T18:05:55.677Z,10.27
2017-09-01T18:08:57.041Z,9.20
2017-09-01T18:11:58.414Z,10.87
2017-09-01T18:14:59.784Z,10.10
2017-09-01T18:18:01.213Z,8.80
2017-09-01T18:21:02.572Z,9.50
2017-09-01T18:24:03.946Z,10.87
2017-09-01T18:27:05.278Z,9.97
2017-09-01T18:30:06.689Z,8.83
2017-09-01T18:33:08.053Z,10.93
2017-09-01T18:36:09.429Z,10.20
2017-09-01T18:39:10.772Z,10.80
2017-09-01T18:42:12.129Z,10.90
2017-09-01T18:45:13.500Z,11.40
2017-09-01T18:48:14.853Z,11.10
2017-09-01T18:51:16.327Z,11.60
2017-09-01T18:54:17.661Z,12.07
2017-09-01T18:57:19.049Z,12.37
2017-09-01T19:00:20.442Z,12.00
2017-09-01T19:03:21.791Z,13.03
2017-09-01T19:06:23.141Z,11.20
2017-09-01T19:09:24.616Z,12.30
2017-09-01T19:12:26.301Z,13.50
2017-09-01T19:15:27.676Z,13.17
2017-09-01T19:18:29.036Z,13.27
2017-09-01T19:21:30.361Z,12.80
2017-09-01T19:24:31.747Z,13.27
2017-09-01T19:27:33.192Z,13.50
2017-09-01T19:30:34.574Z,14.30
2017-09-01T19:36:40.093Z,15.63
2017-09-01T19:39:41.453Z,16.00
2017-09-01T19:42:42.818Z,16.07
2017-09-01T19:45:44.156Z,16.27
2017-09-01T19:48:45.538Z,18.40
2017-09-01T19:51:46.866Z,18.43
2017-09-01T19:54:48.289Z,19.70
2017-09-01T19:57:49.857Z,20.53
2017-09-01T20:00:51.222Z,19.47
2017-09-01T20:03:53.012Z,20.83
2017-09-01T20:06:54.353Z,18.83
2017-09-01T20:09:55.761Z,19.50
2017-09-01T20:12:57.140Z,21.00
2017-09-01T20:15:58.486Z,19.80
2017-09-01T20:19:00.059Z,18.70
2017-09-01T20:22:01.414Z,20.30
2017-09-01T20:25:02.776Z,20.43
2017-09-01T20:28:04.164Z,21.77
2017-09-01T20:31:05.518Z,22.57
2017-09-01T20:34:06.893Z,22.30
2017-09-01T20:37:08.238Z,21.30
2017-09-01T20:40:09.636Z,23.17
2017-09-01T20:43:11.161Z,24.00
2017-09-01T20:46:12.497Z,21.83
2017-09-01T20:49:13.958Z,23.90
2017-09-01T20:52:15.327Z,23.40
2017-09-01T20:55:16.709Z,24.30
2017-09-01T20:58:18.066Z,23.10
2017-09-01T21:01:19.473Z,23.20
2017-09-01T21:04:20.837Z,23.70
2017-09-01T21:07:22.197Z,25.10
2017-09-01T21:10:23.597Z,22.17
2017-09-01T21:13:25.008Z,23.13
2017-09-01T21:16:26.382Z,22.47
2017-09-01T21:19:27.742Z,22.53
2017-09-01T21:22:29.099Z,22.17
2017-09-01T21:25:30.408Z,25.00
2017-09-01T21:28:31.879Z,23.50
2017-09-01T21:31:33.197Z,23.57
2017-09-01T21:34:34.536Z,22.30
2017-09-01T21:37:35.856Z,24.47
2017-09-01T21:40:37.210Z,24.13
2017-09-01T21:43:38.510Z,23.00
2017-09-01T21:46:39.845Z,25.93
2017-09-01T21:49:41.369Z,23.60
2017-09-01T21:52:42.681Z,24.80
2017-09-01T21:55:44.133Z,24.10
2017-09-01T21:58:45.481Z,22.70
2017-09-01T22:01:46.848Z,22.17
2017-09-01T22:04:48.137Z,24.43
2017-09-01T22:07:49.455Z,20.80
2017-09-01T22:10:50.766Z,21.33
2017-09-01T22:13:52.177Z,23.33
2017-09-01T22:16:53.502Z,23.07
2017-09-01T22:19:54.817Z,23.30
2017-09-01T22:22:56.124Z,22.20
2017-09-01T22:25:57.469Z,21.40
2017-09-01T22:28:59.048Z,23.07
2017-09-01T22:32:00.376Z,21.73
2017-09-01T22:35:01.708Z,22.57
2017-09-01T22:38:03.014Z,22.60
2017-09-01T22:41:04.322Z,23.60
2017-09-01T22:44:05.625Z,23.93
2017-09-01T22:47:06.977Z,22.23
2017-09-01T22:50:08.300Z,24.10
2017-09-01T22:53:09.629Z,22.07
2017-09-01T22:56:11.073Z,24.00
2017-09-01T22:59:12.385Z,23.60
2017-09-01T23:02:13.732Z,23.20
2017-09-01T23:05:15.110Z,23.27
2017-09-01T23:08:16.464Z,24.17
2017-09-01T23:11:17.800Z,23.00
2017-09-01T23:14:19.157Z,25.10
2017-09-01T23:17:20.469Z,23.93
2017-09-01T23:20:21.848Z,23.00
2017-09-01T23:23:23.134Z,25.60
2017-09-01T23:26:24.465Z,23.90
2017-09-01T23:29:25.754Z,25.10
2017-09-01T23:32:27.073Z,24.47
2017-09-01T23:35:28.373Z,23.50
2017-09-01T23:38:29.707Z,23.33
2017-09-01T23:41:31.426Z,25.07
2017-09-01T23:44:32.736Z,24.60
2017-09-01T23:47:34.074Z,25.47
2017-09-01T23:50:35.380Z,25.10
2017-09-01T23:53:36.689Z,24.97
2017-09-01T23:56:37.985Z,24.90
2017-09-01T23:59:39.313Z,24.90
